sensor_id;sensor_type;location;lat;lon;timestamp;P1;durP1;ratioP1;P2;durP2;ratioP2
5630;SDS011;2837;50.990;7.124;2023-09-18T05:01:34;153.20;;;9.70;;
5630;SDS011;2837;50.990;7.124;2023-09-18T05:04:00;148.40;;;8.10;;
5630;SDS011;2837;50.990;7.124;2023-09-18T05:06:26;153.37;;;8.97;;
5630;SDS011;2837;50.990;7.124;2023-09-18T05:08:52;151.50;;;9.27;;
5630;SDS011;2837;50.990;7.124;2023-09-18T05:11:19;148.63;;;8.90;;
5630;SDS011;2837;50.990;7.124;2023-09-18T05:13:45;147.83;;;9.00;;
5630;SDS011;2837;50.990;7.124;2023-09-18T05:16:11;148.57;;;9.17;;
5630;SDS011;2837;50.990;7.124;2023-09-18T05:18:38;153.57;;;10.10;;
5630;SDS011;2837;50.990;7.124;2023-09-18T05:21:06;149.60;;;8.60;;
5630;SDS011;2837;50.990;7.124;2023-09-18T05:23:32;152.57;;;9.60;;
5630;SDS011;2837;50.990;7.124;2023-09-18T05:25:59;156.87;;;8.70;;
5630;SDS011;2837;50.990;7.124;2023-09-18T05:28:25;146.97;;;8.17;;
5630;SDS011;2837;50.990;7.124;2023-09-18T05:30:51;154.60;;;8.70;;
5630;SDS011;2837;50.990;7.124;2023-09-18T05:33:17;148.77;;;8.30;;
5630;SDS011;2837;50.990;7.124;2023-09-18T05:35:45;148.13;;;7.90;;
5630;SDS011;2837;50.990;7.124;2023-09-18T05:38:11;148.43;;;8.17;;
5630;SDS011;2837;50.990;7.124;2023-09-18T05:40:42;155.43;;;8.13;;
5630;SDS011;2837;50.990;7.124;2023-09-18T05:43:09;148.27;;;9.27;;
5630;SDS011;2837;50.990;7.124;2023-09-18T05:45:35;153.30;;;8.50;;
5630;SDS011;2837;50.990;7.124;2023-09-18T05:48:02;150.57;;;8.77;;
5630;SDS011;2837;50.990;7.124;2023-09-18T05:50:31;151.60;;;8.43;;
5630;SDS011;2837;50.990;7.124;2023-09-18T05:52:57;148.07;;;8.90;;
5630;SDS011;2837;50.990;7.124;2023-09-18T05:55:28;150.27;;;8.67;;
5630;SDS011;2837;50.990;7.124;2023-09-18T05:57:58;148.47;;;8.30;;
5630;SDS011;2837;50.990;7.124;2023-09-18T06:00:24;148.17;;;7.87;;
5630;SDS011;2837;50.990;7.124;2023-09-18T06:02:50;147.97;;;8.53;;
5630;SDS011;2837;50.990;7.124;2023-09-18T06:05:16;151.30;;;9.07;;
5630;SDS011;2837;50.990;7.124;2023-09-18T06:07:42;155.97;;;8.40;;
5630;SDS011;2837;50.990;7.124;2023-09-18T06:10:09;149.57;;;8.37;;
5630;SDS011;2837;50.990;7.124;2023-09-18T06:12:38;146.90;;;7.97;;
5630;SDS011;2837;50.990;7.124;2023-09-18T06:15:05;148.53;;;8.40;;
5630;SDS011;2837;50.990;7.124;2023-09-18T06:17:35;157.90;;;9.10;;
5630;SDS011;2837;50.990;7.124;2023-09-18T06:20:01;149.53;;;8.10;;
5630;SDS011;2837;50.990;7.124;2023-09-18T06:22:28;149.43;;;9.03;;
5630;SDS011;2837;50.990;7.124;2023-09-18T06:24:53;151.73;;;8.27;;
5630;SDS011;2837;50.990;7.124;2023-09-18T06:27:19;149.57;;;8.97;;
5630;SDS011;2837;50.990;7.124;2023-09-18T06:29:45;153.33;;;8.77;;
5630;SDS011;2837;50.990;7.124;2023-09-18T06:32:11;150.00;;;7.70;;
5630;SDS011;2837;50.990;7.124;2023-09-18T06:34:37;147.30;;;8.60;;
5630;SDS011;2837;50.990;7.124;2023-09-18T06:37:07;147.13;;;7.90;;
5630;SDS011;2837;50.990;7.124;2023-09-18T06:39:35;146.83;;;8.07;;
5630;SDS011;2837;50.990;7.124;2023-09-18T06:42:02;147.60;;;8.10;;
5630;SDS011;2837;50.990;7.124;2023-09-18T06:44:28;150.00;;;8.53;;
5630;SDS011;2837;50.990;7.124;2023-09-18T06:46:54;148.90;;;8.20;;
5630;SDS011;2837;50.990;7.124;2023-09-18T06:49:20;147.53;;;8.23;;
5630;SDS011;2837;50.990;7.124;2023-09-18T06:51:46;147.97;;;7.50;;
5630;SDS011;2837;50.990;7.124;2023-09-18T06:54:12;148.00;;;7.60;;
5630;SDS011;2837;50.990;7.124;2023-09-18T06:56:38;149.33;;;7.97;;
5630;SDS011;2837;50.990;7.124;2023-09-18T06:59:03;147.57;;;8.00;;
5630;SDS011;2837;50.990;7.124;2023-09-18T07:01:29;148.27;;;8.40;;
5630;SDS011;2837;50.990;7.124;2023-09-18T07:03:56;150.87;;;7.33;;
5630;SDS011;2837;50.990;7.124;2023-09-18T07:06:24;146.60;;;7.83;;
5630;SDS011;2837;50.990;7.124;2023-09-18T07:08:50;146.07;;;7.80;;
5630;SDS011;2837;50.990;7.124;2023-09-18T07:11:16;146.57;;;7.90;;
5630;SDS011;2837;50.990;7.124;2023-09-18T07:13:42;150.13;;;7.67;;
5630;SDS011;2837;50.990;7.124;2023-09-18T07:16:08;149.33;;;7.93;;
5630;SDS011;2837;50.990;7.124;2023-09-18T07:18:34;146.67;;;7.63;;
5630;SDS011;2837;50.990;7.124;2023-09-18T07:21:00;144.70;;;6.80;;
5630;SDS011;2837;50.990;7.124;2023-09-18T07:23:26;145.17;;;7.50;;
5630;SDS011;2837;50.990;7.124;2023-09-18T07:25:52;144.77;;;7.60;;
5630;SDS011;2837;50.990;7.124;2023-09-18T07:28:18;145.77;;;8.00;;
5630;SDS011;2837;50.990;7.124;2023-09-18T07:30:44;145.20;;;7.13;;
5630;SDS011;2837;50.990;7.124;2023-09-18T07:33:10;144.47;;;7.20;;
5630;SDS011;2837;50.990;7.124;2023-09-18T07:35:37;145.23;;;6.90;;
5630;SDS011;2837;50.990;7.124;2023-09-18T07:38:03;149.83;;;7.50;;
5630;SDS011;2837;50.990;7.124;2023-09-18T07:40:29;147.50;;;8.40;;
5630;SDS011;2837;50.990;7.124;2023-09-18T07:42:55;150.80;;;7.53;;
5630;SDS011;2837;50.990;7.124;2023-09-18T07:45:22;145.77;;;8.10;;
5630;SDS011;2837;50.990;7.124;2023-09-18T07:47:49;145.97;;;7.97;;
5630;SDS011;2837;50.990;7.124;2023-09-18T07:50:15;144.97;;;8.63;;
5630;SDS011;2837;50.990;7.124;2023-09-18T07:52:41;146.70;;;7.57;;
5630;SDS011;2837;50.990;7.124;2023-09-18T07:55:07;144.77;;;8.37;;
5630;SDS011;2837;50.990;7.124;2023-09-18T07:57:34;145.00;;;8.20;;
5630;SDS011;2837;50.990;7.124;2023-09-18T08:00:02;145.20;;;7.10;;
5630;SDS011;2837;50.990;7.124;2023-09-18T08:02:32;146.27;;;8.07;;
5630;SDS011;2837;50.990;7.124;2023-09-18T08:05:00;143.97;;;8.23;;
5630;SDS011;2837;50.990;7.124;2023-09-18T08:07:27;146.30;;;8.03;;
5630;SDS011;2837;50.990;7.124;2023-09-18T08:09:53;145.37;;;8.60;;
5630;SDS011;2837;50.990;7.124;2023-09-18T08:12:19;150.00;;;7.60;;
5630;SDS011;2837;50.990;7.124;2023-09-18T08:14:44;146.47;;;7.30;;
5630;SDS011;2837;50.990;7.124;2023-09-18T08:17:11;145.40;;;7.50;;
5630;SDS011;2837;50.990;7.124;2023-09-18T08:19:37;142.77;;;7.20;;
5630;SDS011;2837;50.990;7.124;2023-09-18T08:22:04;142.97;;;7.27;;
5630;SDS011;2837;50.990;7.124;2023-09-18T08:24:30;144.33;;;7.53;;
5630;SDS011;2837;50.990;7.124;2023-09-18T08:26:57;145.90;;;7.50;;
5630;SDS011;2837;50.990;7.124;2023-09-18T08:29:22;146.47;;;7.97;;
5630;SDS011;2837;50.990;7.124;2023-09-18T08:31:48;143.97;;;7.67;;
5630;SDS011;2837;50.990;7.124;2023-09-18T08:34:15;147.00;;;7.53;;
5630;SDS011;2837;50.990;7.124;2023-09-18T08:36:43;145.77;;;8.07;;
5630;SDS011;2837;50.990;7.124;2023-09-18T08:39:08;144.67;;;7.87;;
5630;SDS011;2837;50.990;7.124;2023-09-18T08:41:37;144.07;;;7.50;;
5630;SDS011;2837;50.990;7.124;2023-09-18T08:44:08;147.20;;;7.57;;
5630;SDS011;2837;50.990;7.124;2023-09-18T08:46:35;144.90;;;7.87;;
5630;SDS011;2837;50.990;7.124;2023-09-18T08:49:02;143.77;;;7.47;;
5630;SDS011;2837;50.990;7.124;2023-09-18T08:51:28;143.90;;;7.67;;
5630;SDS011;2837;50.990;7.124;2023-09-18T08:53:54;142.97;;;7.53;;
5630;SDS011;2837;50.990;7.124;2023-09-18T08:56:21;146.80;;;7.63;;
5630;SDS011;2837;50.990;7.124;2023-09-18T08:58:47;144.87;;;8.67;;
5630;SDS011;2837;50.990;7.124;2023-09-18T09:01:13;144.73;;;7.83;;
5630;SDS011;2837;50.990;7.124;2023-09-18T09:03:40;143.37;;;7.50;;
5630;SDS011;2837;50.990;7.124;2023-09-18T09:06:07;143.97;;;7.30;;
5630;SDS011;2837;50.990;7.124;2023-09-18T09:08:34;143.07;;;7.43;;
5630;SDS011;2837;50.990;7.124;2023-09-18T09:11:00;144.23;;;7.63;;
5630;SDS011;2837;50.990;7.124;2023-09-18T09:13:26;144.97;;;7.10;;
5630;SDS011;2837;50.990;7.124;2023-09-18T09:16:01;144.63;;;7.30;;
5630;SDS011;2837;50.990;7.124;2023-09-18T09:18:28;142.30;;;6.80;;
5630;SDS011;2837;50.990;7.124;2023-09-18T09:20:58;143.80;;;8.13;;
5630;SDS011;2837;50.990;7.124;2023-09-18T09:23:27;143.90;;;7.40;;
5630;SDS011;2837;50.990;7.124;2023-09-18T09:25:54;143.10;;;7.30;;
5630;SDS011;2837;50.990;7.124;2023-09-18T09:28:37;142.60;;;7.23;;
5630;SDS011;2837;50.990;7.124;2023-09-18T09:31:03;155.02;;;8.40;;
5630;SDS011;2837;50.990;7.124;2023-09-18T09:33:30;143.33;;;7.40;;
5630;SDS011;2837;50.990;7.124;2023-09-18T09:35:56;143.77;;;7.37;;
5630;SDS011;2837;50.990;7.124;2023-09-18T09:38:29;141.50;;;6.60;;
5630;SDS011;2837;50.990;7.124;2023-09-18T09:40:59;143.30;;;6.90;;
5630;SDS011;2837;50.990;7.124;2023-09-18T09:43:26;144.80;;;6.63;;
5630;SDS011;2837;50.990;7.124;2023-09-18T09:46:00;142.67;;;6.50;;
5630;SDS011;2837;50.990;7.124;2023-09-18T09:48:26;143.33;;;6.70;;
5630;SDS011;2837;50.990;7.124;2023-09-18T09:50:56;143.57;;;6.60;;
5630;SDS011;2837;50.990;7.124;2023-09-18T09:56:12;143.97;;;6.93;;
5630;SDS011;2837;50.990;7.124;2023-09-18T09:58:38;144.07;;;7.03;;
5630;SDS011;2837;50.990;7.124;2023-09-18T10:01:06;143.27;;;6.90;;
5630;SDS011;2837;50.990;7.124;2023-09-18T10:03:36;142.27;;;6.87;;
5630;SDS011;2837;50.990;7.124;2023-09-18T10:06:03;143.90;;;6.83;;
5630;SDS011;2837;50.990;7.124;2023-09-18T10:08:30;143.47;;;6.80;;
5630;SDS011;2837;50.990;7.124;2023-09-18T10:11:01;143.17;;;6.83;;
5630;SDS011;2837;50.990;7.124;2023-09-18T10:13:46;142.47;;;6.97;;
5630;SDS011;2837;50.990;7.124;2023-09-18T10:16:17;145.10;;;7.30;;
5630;SDS011;2837;50.990;7.124;2023-09-18T10:18:47;144.60;;;7.10;;
5630;SDS011;2837;50.990;7.124;2023-09-18T10:21:41;143.67;;;6.67;;
5630;SDS011;2837;50.990;7.124;2023-09-18T10:24:21;143.67;;;6.10;;
5630;SDS011;2837;50.990;7.124;2023-09-18T10:26:56;142.80;;;6.97;;
5630;SDS011;2837;50.990;7.124;2023-09-18T10:29:23;151.53;;;8.37;;
5630;SDS011;2837;50.990;7.124;2023-09-18T10:31:50;143.70;;;7.00;;
5630;SDS011;2837;50.990;7.124;2023-09-18T10:34:18;141.67;;;6.77;;
5630;SDS011;2837;50.990;7.124;2023-09-18T10:36:47;142.90;;;6.77;;
5630;SDS011;2837;50.990;7.124;2023-09-18T10:39:14;142.10;;;6.53;;
5630;SDS011;2837;50.990;7.124;2023-09-18T10:41:44;144.50;;;6.77;;
5630;SDS011;2837;50.990;7.124;2023-09-18T10:44:12;144.33;;;6.30;;
5630;SDS011;2837;50.990;7.124;2023-09-18T10:46:39;142.70;;;6.47;;
5630;SDS011;2837;50.990;7.124;2023-09-18T10:49:05;141.97;;;6.37;;
5630;SDS011;2837;50.990;7.124;2023-09-18T10:51:31;142.07;;;6.20;;
5630;SDS011;2837;50.990;7.124;2023-09-18T10:53:59;142.87;;;6.70;;
5630;SDS011;2837;50.990;7.124;2023-09-18T10:56:25;142.20;;;6.80;;
5630;SDS011;2837;50.990;7.124;2023-09-18T10:59:00;142.70;;;7.10;;
5630;SDS011;2837;50.990;7.124;2023-09-18T11:01:29;141.13;;;6.10;;
5630;SDS011;2837;50.990;7.124;2023-09-18T11:03:59;144.60;;;6.43;;
5630;SDS011;2837;50.990;7.124;2023-09-18T11:06:26;142.60;;;7.00;;
5630;SDS011;2837;50.990;7.124;2023-09-18T11:08:58;145.10;;;7.27;;
5630;SDS011;2837;50.990;7.124;2023-09-18T11:11:32;141.97;;;6.40;;
5630;SDS011;2837;50.990;7.124;2023-09-18T11:14:00;142.57;;;6.77;;
5630;SDS011;2837;50.990;7.124;2023-09-18T11:21:24;142.40;;;6.43;;
5630;SDS011;2837;50.990;7.124;2023-09-18T11:23:58;142.83;;;6.53;;
5630;SDS011;2837;50.990;7.124;2023-09-18T11:26:29;142.20;;;6.13;;
5630;SDS011;2837;50.990;7.124;2023-09-18T11:29:04;141.67;;;6.30;;
5630;SDS011;2837;50.990;7.124;2023-09-18T11:31:47;144.17;;;6.80;;
5630;SDS011;2837;50.990;7.124;2023-09-18T11:34:25;141.57;;;6.20;;
5630;SDS011;2837;50.990;7.124;2023-09-18T11:36:53;142.57;;;6.70;;
5630;SDS011;2837;50.990;7.124;2023-09-18T11:42:18;144.70;;;7.23;;
5630;SDS011;2837;50.990;7.124;2023-09-18T11:44:47;141.80;;;6.87;;
5630;SDS011;2837;50.990;7.124;2023-09-18T11:47:17;142.40;;;7.07;;
5630;SDS011;2837;50.990;7.124;2023-09-18T11:49:55;143.27;;;6.27;;
5630;SDS011;2837;50.990;7.124;2023-09-18T11:52:26;142.77;;;7.20;;
5630;SDS011;2837;50.990;7.124;2023-09-18T11:54:55;142.53;;;7.50;;
5630;SDS011;2837;50.990;7.124;2023-09-18T11:57:22;143.53;;;7.10;;
5630;SDS011;2837;50.990;7.124;2023-09-18T11:59:49;142.43;;;6.53;;
5630;SDS011;2837;50.990;7.124;2023-09-18T12:02:25;143.27;;;7.03;;
5630;SDS011;2837;50.990;7.124;2023-09-18T12:05:13;143.67;;;6.37;;
5630;SDS011;2837;50.990;7.124;2023-09-18T12:07:40;142.30;;;7.13;;
5630;SDS011;2837;50.990;7.124;2023-09-18T12:10:09;141.37;;;6.77;;
5630;SDS011;2837;50.990;7.124;2023-09-18T12:12:36;144.37;;;7.37;;
5630;SDS011;2837;50.990;7.124;2023-09-18T12:15:02;142.97;;;7.00;;
5630;SDS011;2837;50.990;7.124;2023-09-18T12:17:28;141.07;;;6.50;;
5630;SDS011;2837;50.990;7.124;2023-09-18T12:19:54;140.87;;;6.67;;
5630;SDS011;2837;50.990;7.124;2023-09-18T12:22:24;141.80;;;6.97;;
5630;SDS011;2837;50.990;7.124;2023-09-18T12:25:13;142.47;;;7.37;;
5630;SDS011;2837;50.990;7.124;2023-09-18T12:27:43;141.63;;;6.83;;
5630;SDS011;2837;50.990;7.124;2023-09-18T12:30:09;144.13;;;6.97;;
5630;SDS011;2837;50.990;7.124;2023-09-18T12:32:36;141.73;;;7.20;;
5630;SDS011;2837;50.990;7.124;2023-09-18T12:35:03;141.57;;;6.63;;
5630;SDS011;2837;50.990;7.124;2023-09-18T12:37:32;141.40;;;6.10;;
5630;SDS011;2837;50.990;7.124;2023-09-18T12:39:59;141.67;;;7.17;;
5630;SDS011;2837;50.990;7.124;2023-09-18T12:42:25;141.57;;;6.60;;
5630;SDS011;2837;50.990;7.124;2023-09-18T12:44:51;142.47;;;6.97;;
5630;SDS011;2837;50.990;7.124;2023-09-18T12:47:19;142.23;;;7.23;;
5630;SDS011;2837;50.990;7.124;2023-09-18T12:49:45;141.70;;;7.23;;
5630;SDS011;2837;50.990;7.124;2023-09-18T12:52:12;142.03;;;7.10;;
5630;SDS011;2837;50.990;7.124;2023-09-18T12:54:39;141.60;;;7.03;;
5630;SDS011;2837;50.990;7.124;2023-09-18T12:57:07;141.57;;;6.77;;
5630;SDS011;2837;50.990;7.124;2023-09-18T12:59:34;144.57;;;7.33;;
5630;SDS011;2837;50.990;7.124;2023-09-18T13:02:01;141.70;;;7.20;;
5630;SDS011;2837;50.990;7.124;2023-09-18T13:04:29;142.57;;;6.73;;
5630;SDS011;2837;50.990;7.124;2023-09-18T13:07:02;141.67;;;6.40;;
5630;SDS011;2837;50.990;7.124;2023-09-18T13:09:29;141.17;;;6.90;;
5630;SDS011;2837;50.990;7.124;2023-09-18T13:11:55;142.80;;;6.70;;
5630;SDS011;2837;50.990;7.124;2023-09-18T13:14:22;141.47;;;6.93;;
5630;SDS011;2837;50.990;7.124;2023-09-18T13:16:48;142.50;;;6.63;;
5630;SDS011;2837;50.990;7.124;2023-09-18T13:19:14;141.17;;;6.20;;
5630;SDS011;2837;50.990;7.124;2023-09-18T13:21:47;142.20;;;6.90;;
5630;SDS011;2837;50.990;7.124;2023-09-18T13:24:29;142.40;;;5.90;;
5630;SDS011;2837;50.990;7.124;2023-09-18T13:26:56;142.57;;;7.03;;
5630;SDS011;2837;50.990;7.124;2023-09-18T13:29:23;141.33;;;7.37;;
5630;SDS011;2837;50.990;7.124;2023-09-18T13:31:50;141.40;;;7.03;;
5630;SDS011;2837;50.990;7.124;2023-09-18T13:34:16;141.23;;;6.97;;
5630;SDS011;2837;50.990;7.124;2023-09-18T13:36:47;141.47;;;6.37;;
5630;SDS011;2837;50.990;7.124;2023-09-18T13:39:12;141.57;;;6.63;;
5630;SDS011;2837;50.990;7.124;2023-09-18T13:41:41;141.73;;;6.97;;
5630;SDS011;2837;50.990;7.124;2023-09-18T13:44:08;141.30;;;6.80;;
5630;SDS011;2837;50.990;7.124;2023-09-18T13:46:35;141.40;;;6.70;;
5630;SDS011;2837;50.990;7.124;2023-09-18T13:49:03;141.23;;;6.70;;
5630;SDS011;2837;50.990;7.124;2023-09-18T13:51:29;140.80;;;7.10;;
5630;SDS011;2837;50.990;7.124;2023-09-18T13:53:56;143.23;;;7.37;;
5630;SDS011;2837;50.990;7.124;2023-09-18T13:56:22;143.30;;;7.10;;
5630;SDS011;2837;50.990;7.124;2023-09-18T13:58:52;141.47;;;7.30;;
5630;SDS011;2837;50.990;7.124;2023-09-18T14:01:18;140.67;;;6.43;;
5630;SDS011;2837;50.990;7.124;2023-09-18T14:03:45;143.47;;;6.87;;
5630;SDS011;2837;50.990;7.124;2023-09-18T14:06:11;140.27;;;6.73;;
5630;SDS011;2837;50.990;7.124;2023-09-18T14:08:37;140.53;;;6.43;;
5630;SDS011;2837;50.990;7.124;2023-09-18T14:11:05;140.70;;;6.43;;
5630;SDS011;2837;50.990;7.124;2023-09-18T14:13:31;140.80;;;7.27;;
5630;SDS011;2837;50.990;7.124;2023-09-18T14:15:57;141.60;;;7.03;;
5630;SDS011;2837;50.990;7.124;2023-09-18T14:18:24;142.00;;;7.00;;
5630;SDS011;2837;50.990;7.124;2023-09-18T14:20:50;142.17;;;7.27;;
5630;SDS011;2837;50.990;7.124;2023-09-18T14:23:15;141.80;;;6.83;;
5630;SDS011;2837;50.990;7.124;2023-09-18T14:25:41;140.90;;;6.53;;
5630;SDS011;2837;50.990;7.124;2023-09-18T14:28:07;140.00;;;6.70;;
5630;SDS011;2837;50.990;7.124;2023-09-18T14:30:33;141.20;;;6.77;;
5630;SDS011;2837;50.990;7.124;2023-09-18T14:32:59;141.70;;;7.10;;
5630;SDS011;2837;50.990;7.124;2023-09-18T14:35:26;141.33;;;7.27;;
5630;SDS011;2837;50.990;7.124;2023-09-18T14:37:52;141.27;;;7.00;;
5630;SDS011;2837;50.990;7.124;2023-09-18T14:40:18;140.87;;;6.30;;
5630;SDS011;2837;50.990;7.124;2023-09-18T14:42:46;141.47;;;6.80;;
5630;SDS011;2837;50.990;7.124;2023-09-18T14:45:11;140.23;;;7.20;;
5630;SDS011;2837;50.990;7.124;2023-09-18T14:47:37;141.30;;;6.80;;
5630;SDS011;2837;50.990;7.124;2023-09-18T14:50:04;143.27;;;7.80;;
5630;SDS011;2837;50.990;7.124;2023-09-18T14:52:30;141.47;;;6.57;;
5630;SDS011;2837;50.990;7.124;2023-09-18T14:54:57;140.77;;;6.60;;
5630;SDS011;2837;50.990;7.124;2023-09-18T14:57:23;141.07;;;6.10;;
5630;SDS011;2837;50.990;7.124;2023-09-18T14:59:49;143.27;;;7.03;;
5630;SDS011;2837;50.990;7.124;2023-09-18T15:02:15;143.10;;;6.93;;
5630;SDS011;2837;50.990;7.124;2023-09-18T15:04:43;140.63;;;6.57;;
5630;SDS011;2837;50.990;7.124;2023-09-18T15:07:09;143.67;;;8.00;;
5630;SDS011;2837;50.990;7.124;2023-09-18T15:09:35;141.40;;;7.30;;
5630;SDS011;2837;50.990;7.124;2023-09-18T15:12:01;141.20;;;6.77;;
5630;SDS011;2837;50.990;7.124;2023-09-18T15:14:28;140.57;;;7.10;;
5630;SDS011;2837;50.990;7.124;2023-09-18T15:16:54;141.10;;;6.87;;
5630;SDS011;2837;50.990;7.124;2023-09-18T15:19:20;141.90;;;7.50;;
5630;SDS011;2837;50.990;7.124;2023-09-18T15:21:47;141.27;;;7.33;;
5630;SDS011;2837;50.990;7.124;2023-09-18T15:24:13;142.73;;;7.70;;
5630;SDS011;2837;50.990;7.124;2023-09-18T15:26:39;141.50;;;7.00;;
5630;SDS011;2837;50.990;7.124;2023-09-18T15:29:04;140.90;;;6.67;;
5630;SDS011;2837;50.990;7.124;2023-09-18T15:31:33;142.57;;;7.87;;
5630;SDS011;2837;50.990;7.124;2023-09-18T15:33:59;141.40;;;6.50;;
5630;SDS011;2837;50.990;7.124;2023-09-18T15:36:25;140.07;;;6.10;;
5630;SDS011;2837;50.990;7.124;2023-09-18T15:38:51;140.67;;;6.50;;
5630;SDS011;2837;50.990;7.124;2023-09-18T15:41:17;140.97;;;7.00;;
5630;SDS011;2837;50.990;7.124;2023-09-18T15:43:43;141.43;;;6.53;;
5630;SDS011;2837;50.990;7.124;2023-09-18T15:46:10;141.17;;;7.17;;
5630;SDS011;2837;50.990;7.124;2023-09-18T15:48:36;141.60;;;6.93;;
5630;SDS011;2837;50.990;7.124;2023-09-18T15:51:01;140.80;;;6.53;;
5630;SDS011;2837;50.990;7.124;2023-09-18T15:53:28;140.80;;;6.50;;
5630;SDS011;2837;50.990;7.124;2023-09-18T15:55:54;142.70;;;7.87;;
5630;SDS011;2837;50.990;7.124;2023-09-18T15:58:20;140.37;;;6.60;;
5630;SDS011;2837;50.990;7.124;2023-09-18T16:00:49;143.00;;;6.90;;
5630;SDS011;2837;50.990;7.124;2023-09-18T16:03:15;141.60;;;7.17;;
5630;SDS011;2837;50.990;7.124;2023-09-18T16:05:41;140.90;;;6.60;;
5630;SDS011;2837;50.990;7.124;2023-09-18T16:08:07;141.57;;;7.23;;
5630;SDS011;2837;50.990;7.124;2023-09-18T16:10:33;141.37;;;6.80;;
5630;SDS011;2837;50.990;7.124;2023-09-18T16:12:59;141.77;;;6.83;;
5630;SDS011;2837;50.990;7.124;2023-09-18T16:15:24;140.73;;;6.70;;
5630;SDS011;2837;50.990;7.124;2023-09-18T16:17:52;141.10;;;6.10;;
5630;SDS011;2837;50.990;7.124;2023-09-18T16:20:19;141.50;;;6.70;;
5630;SDS011;2837;50.990;7.124;2023-09-18T16:22:45;143.50;;;6.70;;
5630;SDS011;2837;50.990;7.124;2023-09-18T16:25:12;142.17;;;7.50;;
5630;SDS011;2837;50.990;7.124;2023-09-18T16:27:38;141.30;;;6.73;;
5630;SDS011;2837;50.990;7.124;2023-09-18T16:30:04;141.77;;;6.60;;
5630;SDS011;2837;50.990;7.124;2023-09-18T16:32:31;141.90;;;7.00;;
5630;SDS011;2837;50.990;7.124;2023-09-18T16:34:57;141.90;;;6.73;;
5630;SDS011;2837;50.990;7.124;2023-09-18T16:37:23;141.97;;;6.50;;
5630;SDS011;2837;50.990;7.124;2023-09-18T16:39:49;141.80;;;7.23;;
5630;SDS011;2837;50.990;7.124;2023-09-18T16:42:15;142.27;;;7.17;;
5630;SDS011;2837;50.990;7.124;2023-09-18T16:44:41;141.50;;;6.80;;
5630;SDS011;2837;50.990;7.124;2023-09-18T16:47:07;142.33;;;7.20;;
5630;SDS011;2837;50.990;7.124;2023-09-18T16:49:33;142.40;;;7.00;;
5630;SDS011;2837;50.990;7.124;2023-09-18T16:52:00;142.27;;;7.50;;
5630;SDS011;2837;50.990;7.124;2023-09-18T16:54:26;143.37;;;7.40;;
5630;SDS011;2837;50.990;7.124;2023-09-18T16:56:52;143.57;;;7.90;;
5630;SDS011;2837;50.990;7.124;2023-09-18T16:59:18;142.17;;;7.10;;
5630;SDS011;2837;50.990;7.124;2023-09-18T17:01:44;141.13;;;6.60;;
5630;SDS011;2837;50.990;7.124;2023-09-18T17:04:10;143.20;;;7.40;;
5630;SDS011;2837;50.990;7.124;2023-09-18T17:06:38;142.27;;;7.27;;
5630;SDS011;2837;50.990;7.124;2023-09-18T17:09:04;141.57;;;6.67;;
5630;SDS011;2837;50.990;7.124;2023-09-18T17:11:31;143.60;;;7.43;;
5630;SDS011;2837;50.990;7.124;2023-09-18T17:13:57;142.73;;;7.03;;
5630;SDS011;2837;50.990;7.124;2023-09-18T17:16:24;142.03;;;6.77;;
5630;SDS011;2837;50.990;7.124;2023-09-18T17:18:50;143.70;;;6.83;;
5630;SDS011;2837;50.990;7.124;2023-09-18T17:21:21;143.30;;;7.30;;
5630;SDS011;2837;50.990;7.124;2023-09-18T17:23:48;145.60;;;7.50;;
5630;SDS011;2837;50.990;7.124;2023-09-18T17:26:14;145.17;;;7.53;;
5630;SDS011;2837;50.990;7.124;2023-09-18T17:28:40;142.77;;;6.90;;
5630;SDS011;2837;50.990;7.124;2023-09-18T17:31:06;142.40;;;7.07;;
5630;SDS011;2837;50.990;7.124;2023-09-18T17:33:31;144.47;;;6.60;;
5630;SDS011;2837;50.990;7.124;2023-09-18T17:35:57;146.60;;;7.43;;
5630;SDS011;2837;50.990;7.124;2023-09-18T17:38:23;143.77;;;7.40;;
5630;SDS011;2837;50.990;7.124;2023-09-18T17:40:49;143.23;;;7.47;;
5630;SDS011;2837;50.990;7.124;2023-09-18T17:43:15;143.00;;;7.17;;
5630;SDS011;2837;50.990;7.124;2023-09-18T17:45:41;142.07;;;6.27;;
5630;SDS011;2837;50.990;7.124;2023-09-18T17:48:07;142.77;;;7.20;;
5630;SDS011;2837;50.990;7.124;2023-09-18T17:50:34;144.50;;;7.70;;
5630;SDS011;2837;50.990;7.124;2023-09-18T17:53:00;143.30;;;7.60;;
5630;SDS011;2837;50.990;7.124;2023-09-18T17:55:26;143.63;;;7.33;;
5630;SDS011;2837;50.990;7.124;2023-09-18T17:57:52;143.17;;;7.30;;
5630;SDS011;2837;50.990;7.124;2023-09-18T18:00:18;143.80;;;7.57;;
5630;SDS011;2837;50.990;7.124;2023-09-18T18:02:45;144.77;;;7.63;;
5630;SDS011;2837;50.990;7.124;2023-09-18T18:05:11;142.97;;;7.30;;
5630;SDS011;2837;50.990;7.124;2023-09-18T18:07:37;143.37;;;7.70;;
5630;SDS011;2837;50.990;7.124;2023-09-18T18:10:06;146.17;;;7.43;;
5630;SDS011;2837;50.990;7.124;2023-09-18T18:12:33;143.57;;;7.53;;
5630;SDS011;2837;50.990;7.124;2023-09-18T18:14:59;143.27;;;7.30;;
5630;SDS011;2837;50.990;7.124;2023-09-18T18:17:25;143.87;;;8.23;;
5630;SDS011;2837;50.990;7.124;2023-09-18T18:19:53;143.10;;;7.07;;
5630;SDS011;2837;50.990;7.124;2023-09-18T18:22:19;142.77;;;6.70;;
5630;SDS011;2837;50.990;7.124;2023-09-18T18:24:45;143.17;;;7.70;;
5630;SDS011;2837;50.990;7.124;2023-09-18T18:27:10;144.77;;;7.60;;
5630;SDS011;2837;50.990;7.124;2023-09-18T18:29:36;144.67;;;7.30;;
5630;SDS011;2837;50.990;7.124;2023-09-18T18:32:02;144.40;;;6.47;;
5630;SDS011;2837;50.990;7.124;2023-09-18T18:34:28;144.77;;;7.60;;
5630;SDS011;2837;50.990;7.124;2023-09-18T18:36:54;150.20;;;7.30;;
5630;SDS011;2837;50.990;7.124;2023-09-18T18:39:20;144.57;;;8.30;;
5630;SDS011;2837;50.990;7.124;2023-09-18T18:41:46;145.80;;;8.40;;
5630;SDS011;2837;50.990;7.124;2023-09-18T18:44:12;145.80;;;7.50;;
5630;SDS011;2837;50.990;7.124;2023-09-18T18:46:38;145.80;;;7.23;;
5630;SDS011;2837;50.990;7.124;2023-09-18T18:49:04;146.80;;;7.70;;
5630;SDS011;2837;50.990;7.124;2023-09-18T18:51:30;147.27;;;7.77;;
5630;SDS011;2837;50.990;7.124;2023-09-18T18:53:57;145.87;;;7.57;;
5630;SDS011;2837;50.990;7.124;2023-09-18T18:56:25;147.00;;;8.13;;
5630;SDS011;2837;50.990;7.124;2023-09-18T18:58:51;147.87;;;7.37;;
5630;SDS011;2837;50.990;7.124;2023-09-18T19:01:17;148.13;;;7.87;;
5630;SDS011;2837;50.990;7.124;2023-09-18T19:03:48;145.67;;;7.10;;
5630;SDS011;2837;50.990;7.124;2023-09-18T19:06:14;147.60;;;7.40;;
5630;SDS011;2837;50.990;7.124;2023-09-18T19:08:41;145.87;;;7.50;;
5630;SDS011;2837;50.990;7.124;2023-09-18T19:11:07;150.83;;;7.73;;
5630;SDS011;2837;50.990;7.124;2023-09-18T19:13:34;156.33;;;7.87;;
5630;SDS011;2837;50.990;7.124;2023-09-18T19:16:00;147.10;;;7.20;;
5630;SDS011;2837;50.990;7.124;2023-09-18T19:18:27;147.57;;;7.37;;
5630;SDS011;2837;50.990;7.124;2023-09-18T19:20:56;146.67;;;7.70;;
5630;SDS011;2837;50.990;7.124;2023-09-18T19:23:22;148.03;;;7.17;;
5630;SDS011;2837;50.990;7.124;2023-09-18T19:25:49;147.33;;;7.20;;
5630;SDS011;2837;50.990;7.124;2023-09-18T19:28:17;147.40;;;7.97;;
5630;SDS011;2837;50.990;7.124;2023-09-18T19:30:43;148.57;;;8.00;;
5630;SDS011;2837;50.990;7.124;2023-09-18T19:33:13;146.37;;;7.70;;
5630;SDS011;2837;50.990;7.124;2023-09-18T19:35:40;155.60;;;8.40;;
5630;SDS011;2837;50.990;7.124;2023-09-18T19:38:06;146.70;;;7.43;;
5630;SDS011;2837;50.990;7.124;2023-09-18T19:40:32;162.50;;;8.37;;
5630;SDS011;2837;50.990;7.124;2023-09-18T19:42:57;146.07;;;7.70;;
5630;SDS011;2837;50.990;7.124;2023-09-18T19:45:27;147.07;;;8.30;;
5630;SDS011;2837;50.990;7.124;2023-09-18T19:47:53;146.67;;;8.17;;
5630;SDS011;2837;50.990;7.124;2023-09-18T19:50:19;148.33;;;8.30;;
5630;SDS011;2837;50.990;7.124;2023-09-18T19:52:45;146.17;;;7.90;;
5630;SDS011;2837;50.990;7.124;2023-09-18T19:55:11;146.33;;;8.50;;
5630;SDS011;2837;50.990;7.124;2023-09-18T19:57:38;147.03;;;8.77;;
5630;SDS011;2837;50.990;7.124;2023-09-18T20:00:05;146.50;;;8.10;;